Time;durP1;ratioP1;P1;durP2;ratioP2;P2;SDS_P1;SDS_P2;PMS_P1;PMS_P2;Temp;Humidity;BMP_temperature;BMP_pressure;BME280_temperature;BME280_humidity;BME280_pressure;Samples;Min_cycle;Max_cycle;Signal;HPM_P1;HPM_P2
2023/06/28 00:01:00;;;;;;;6.18;2.35;;;;;;;19.12;100.00;100877.06;8367321;28;20149;-64
2023/06/28 00:05:00;;;;;;;6.20;2.60;;;;;;;19.08;100.00;100881.22;8368628;28;20040;-63
2023/06/28 00:09:01;;;;;;;9.02;2.78;;;;;;;19.10;100.00;100879.16;8376783;28;20128;-64
2023/06/28 00:13:01;;;;;;;8.15;2.55;;;;;;;18.85;100.00;100880.41;8373073;28;20083;-64
2023/06/28 00:17:02;;;;;;;8.07;2.78;;;;;;;18.84;100.00;100877.84;8375151;28;20403;-64
2023/06/28 00:21:03;;;;;;;10.23;2.95;;;;;;;18.68;100.00;100872.53;8370748;28;20120;-60
2023/06/28 00:25:04;;;;;;;9.75;2.55;;;;;;;18.89;100.00;100875.41;8375755;28;20072;-60
2023/06/28 00:29:04;;;;;;;7.13;2.70;;;;;;;18.72;100.00;100874.72;8371887;28;20503;-60
2023/06/28 00:33:05;;;;;;;7.93;2.92;;;;;;;19.04;100.00;100876.31;8375919;28;20564;-60
2023/06/28 00:37:06;;;;;;;6.75;2.53;;;;;;;18.93;100.00;100869.38;8373333;28;20040;-60
2023/06/28 00:41:08;;;;;;;10.10;2.90;;;;;;;18.94;100.00;100879.28;8373351;28;20060;-60
2023/06/28 00:45:13;;;;;;;7.85;2.35;;;;;;;18.86;100.00;100876.66;8375179;28;20506;-60
2023/06/28 00:49:13;;;;;;;9.25;2.78;;;;;;;18.79;100.00;100881.16;8371885;28;20076;-60
2023/06/28 00:53:16;;;;;;;11.07;2.70;;;;;;;18.80;100.00;100873.78;8371733;28;20086;-60
2023/06/28 00:57:16;;;;;;;7.03;2.83;;;;;;;18.85;99.96;100880.41;8375857;28;20060;-60
2023/06/28 01:01:17;;;;;;;5.90;2.45;;;;;;;18.87;96.06;100886.56;8373158;28;20041;-59
2023/06/28 01:05:20;;;;;;;4.97;2.38;;;;;;;18.88;95.33;100880.03;8372932;28;20144;-59
2023/06/28 01:09:24;;;;;;;7.38;2.38;;;;;;;18.94;92.40;100881.22;8372379;28;20551;-60
2023/06/28 01:13:25;;;;;;;9.40;2.53;;;;;;;18.91;92.69;100889.81;8374434;28;20036;-60
2023/06/28 01:17:25;;;;;;;9.75;2.58;;;;;;;18.96;95.21;100873.63;8371477;28;20540;-60
2023/06/28 01:21:29;;;;;;;9.35;2.65;;;;;;;18.97;93.03;100878.94;8371214;28;20239;-60
2023/06/28 01:25:31;;;;;;;6.20;2.20;;;;;;;18.96;91.87;100887.34;8374946;28;20029;-60
2023/06/28 01:29:31;;;;;;;6.30;2.25;;;;;;;18.94;91.34;100873.00;8372167;28;20043;-60
2023/06/28 01:33:32;;;;;;;5.82;2.10;;;;;;;18.91;92.25;100885.16;8374494;28;20059;-60
2023/06/28 01:37:33;;;;;;;3.85;2.28;;;;;;;18.62;93.60;100882.34;8370100;28;20040;-59
2023/06/28 01:41:34;;;;;;;7.90;2.42;;;;;;;18.73;93.48;100889.28;8371052;28;20029;-60
2023/06/28 01:45:35;;;;;;;7.50;2.88;;;;;;;18.61;99.18;100894.34;8370537;28;20578;-61
2023/06/28 01:49:38;;;;;;;9.20;3.47;;;;;;;18.68;100.00;100889.81;8371376;28;20045;-60
2023/06/28 01:53:40;;;;;;;8.88;3.03;;;;;;;18.51;100.00;100903.81;8369682;28;20040;-60
2023/06/28 01:57:40;;;;;;;6.25;2.70;;;;;;;18.59;100.00;100896.41;8371939;28;20037;-60
2023/06/28 02:01:43;;;;;;;11.23;2.95;;;;;;;18.20;100.00;100897.50;8369329;28;20098;-60
2023/06/28 02:05:44;;;;;;;7.70;3.40;;;;;;;18.08;100.00;100886.09;8371942;28;20061;-60
2023/06/28 02:09:45;;;;;;;13.02;3.38;;;;;;;18.17;100.00;100898.69;8371281;28;20254;-60
2023/06/28 02:13:45;;;;;;;5.95;3.22;;;;;;;18.47;100.00;100886.91;8369398;28;20032;-62
2023/06/28 02:17:47;;;;;;;11.30;3.33;;;;;;;18.50;100.00;100881.06;8372356;28;20052;-62
2023/06/28 02:21:48;;;;;;;4.50;3.22;;;;;;;18.62;100.00;100882.34;8368747;28;20330;-60
2023/06/28 02:25:48;;;;;;;6.15;3.08;;;;;;;18.74;100.00;100882.75;8372476;28;20576;-60
2023/06/28 02:29:51;;;;;;;12.00;3.28;;;;;;;18.55;100.00;100891.47;8365137;28;20064;-62
2023/06/28 02:33:51;;;;;;;10.13;3.22;;;;;;;18.60;100.00;100887.13;8372352;28;20037;-63
2023/06/28 02:37:52;;;;;;;10.23;3.40;;;;;;;18.57;100.00;100884.75;8367765;28;20307;-62
2023/06/28 02:41:52;;;;;;;9.65;3.45;;;;;;;18.62;100.00;100892.44;8370378;28;20033;-62
2023/06/28 02:45:53;;;;;;;4.10;3.30;;;;;;;18.63;100.00;100875.81;8370003;28;20040;-62
2023/06/28 02:49:53;;;;;;;7.45;3.38;;;;;;;18.41;100.00;100879.41;8369501;28;20071;-62
2023/06/28 02:53:54;;;;;;;11.00;4.18;;;;;;;18.37;100.00;100879.97;8366407;28;20394;-62
2023/06/28 02:57:54;;;;;;;10.02;3.45;;;;;;;18.45;100.00;100877.16;8369508;28;20048;-62
2023/06/28 03:01:55;;;;;;;12.50;4.43;;;;;;;18.44;100.00;100881.78;8369914;28;20045;-62
2023/06/28 03:05:55;;;;;;;11.40;3.55;;;;;;;18.55;100.00;100877.78;8370599;28;20399;-62
2023/06/28 03:09:56;;;;;;;7.13;4.40;;;;;;;18.65;100.00;100875.63;8370835;28;20403;-62
2023/06/28 03:13:57;;;;;;;7.50;3.78;;;;;;;18.73;100.00;100870.94;8368793;28;20492;-62
2023/06/28 03:17:57;;;;;;;7.68;3.70;;;;;;;18.73;100.00;100875.56;8370517;28;20072;-62
2023/06/28 03:21:58;;;;;;;7.30;3.88;;;;;;;18.85;100.00;100868.63;8370330;28;20124;-62
2023/06/28 03:25:58;;;;;;;11.43;3.75;;;;;;;18.68;100.00;100862.44;8370511;28;20041;-62
2023/06/28 03:29:59;;;;;;;19.63;4.97;;;;;;;18.61;100.00;100858.72;8366286;28;20053;-62
2023/06/28 03:33:59;;;;;;;10.20;4.18;;;;;;;18.90;100.00;100867.00;8370948;28;20120;-62
2023/06/28 03:38:00;;;;;;;7.82;4.13;;;;;;;18.73;100.00;100868.19;8367444;28;20052;-61
2023/06/28 03:42:00;;;;;;;13.55;4.50;;;;;;;18.63;100.00;100864.03;8371972;28;20045;-62
2023/06/28 03:46:02;;;;;;;13.65;4.25;;;;;;;18.83;100.00;100859.72;8343121;28;20523;-62
2023/06/28 03:50:03;;;;;;;13.95;4.43;;;;;;;18.69;100.00;100863.25;8373887;28;20492;-62
2023/06/28 03:54:03;;;;;;;13.05;4.32;;;;;;;18.68;100.00;100856.94;8376786;28;20051;-62
2023/06/28 03:58:04;;;;;;;14.85;4.18;;;;;;;18.59;100.00;100858.06;8375102;28;20340;-62
2023/06/28 04:02:05;;;;;;;19.65;4.55;;;;;;;18.45;100.00;100861.56;8372646;28;20051;-62
2023/06/28 04:06:05;;;;;;;11.95;4.03;;;;;;;18.48;100.00;100861.22;8376246;28;20449;-62
2023/06/28 04:10:06;;;;;;;12.52;4.22;;;;;;;18.49;100.00;100870.28;8373280;28;20135;-62
2023/06/28 04:14:07;;;;;;;15.15;4.95;;;;;;;18.50;100.00;100864.63;8375484;28;20047;-62
2023/06/28 04:18:08;;;;;;;12.45;4.47;;;;;;;18.61;100.00;100860.59;8374671;28;20318;-62
2023/06/28 04:22:08;;;;;;;18.67;4.72;;;;;;;18.55;100.00;100866.81;8372307;28;20048;-62
2023/06/28 04:26:09;;;;;;;16.92;4.45;;;;;;;18.75;100.00;100874.34;8376169;28;20044;-62
2023/06/28 04:30:09;;;;;;;31.25;6.15;;;;;;;18.61;100.00;100866.94;8373823;28;20071;-62
2023/06/28 04:34:10;;;;;;;18.17;5.28;;;;;;;18.51;100.00;100871.78;8373973;28;20499;-62
2023/06/28 04:38:13;;;;;;;21.45;5.53;;;;;;;18.52;100.00;100869.91;8373626;28;20052;-62
2023/06/28 04:42:14;;;;;;;21.35;5.90;;;;;;;18.67;100.00;100868.91;8374974;28;20132;-62
2023/06/28 04:46:14;;;;;;;23.83;6.10;;;;;;;18.64;100.00;100871.19;8371651;28;20518;-62
2023/06/28 04:50:15;;;;;;;21.30;5.25;;;;;;;18.64;100.00;100877.53;8374646;28;20465;-62
2023/06/28 04:54:16;;;;;;;21.23;5.65;;;;;;;18.72;100.00;100880.19;8375438;28;20499;-62
2023/06/28 04:58:17;;;;;;;12.63;4.97;;;;;;;18.50;100.00;100871.97;8371264;28;20529;-62
2023/06/28 05:02:21;;;;;;;14.85;5.13;;;;;;;18.56;100.00;100866.63;8374595;28;20127;-60
2023/06/28 05:06:21;;;;;;;13.75;4.93;;;;;;;18.40;100.00;100869.50;8371399;28;20183;-60
2023/06/28 05:10:23;;;;;;;19.55;5.35;;;;;;;18.36;100.00;100859.91;8373542;28;20037;-60
2023/06/28 05:14:25;;;;;;;15.63;5.15;;;;;;;18.45;100.00;100867.06;8371357;28;20079;-60
2023/06/28 05:18:25;;;;;;;22.10;5.07;;;;;;;18.45;100.00;100861.56;8371984;28;20068;-60
2023/06/28 05:22:27;;;;;;;23.55;5.47;;;;;;;18.48;100.00;100866.69;8370486;28;20111;-60
2023/06/28 05:26:29;;;;;;;15.23;5.45;;;;;;;18.46;100.00;100863.31;8376243;28;20044;-61
2023/06/28 05:30:29;;;;;;;21.80;4.50;;;;;;;18.38;100.00;100866.09;8368048;28;20052;-60
2023/06/28 05:34:30;;;;;;;16.67;4.70;;;;;;;18.41;100.00;100871.19;8372874;28;20041;-61
2023/06/28 05:38:30;;;;;;;20.52;4.65;;;;;;;18.45;100.00;100878.00;8372317;28;20067;-61
2023/06/28 05:42:31;;;;;;;18.88;5.53;;;;;;;18.48;100.00;100861.22;8369906;28;20048;-60
2023/06/28 05:46:31;;;;;;;15.30;4.95;;;;;;;18.58;100.00;100870.06;8372465;28;20399;-61
2023/06/28 05:50:32;;;;;;;21.83;5.30;;;;;;;18.71;100.00;100878.50;8371241;28;20042;-60
2023/06/28 05:54:32;;;;;;;15.60;5.32;;;;;;;18.63;100.00;100881.28;8371139;28;20040;-60
2023/06/28 05:58:33;;;;;;;14.20;4.95;;;;;;;18.75;100.00;100874.34;8372974;28;20040;-60
2023/06/28 06:02:34;;;;;;;18.63;5.30;;;;;;;18.58;100.00;100872.78;8369416;28;20032;-61
2023/06/28 06:06:34;;;;;;;16.85;4.97;;;;;;;18.60;100.00;100876.19;8372287;28;20040;-61
2023/06/28 06:10:35;;;;;;;14.23;5.37;;;;;;;18.52;100.00;100868.03;8372071;28;20044;-60
2023/06/28 06:14:35;;;;;;;18.30;5.30;;;;;;;18.55;100.00;100870.41;8370892;28;20637;-60
2023/06/28 06:18:39;;;;;;;17.65;4.43;;;;;;;18.49;100.00;100868.41;8369247;28;20112;-60
2023/06/28 06:22:40;;;;;;;18.05;4.65;;;;;;;18.51;100.00;100862.75;8369154;28;20033;-60
2023/06/28 06:26:40;;;;;;;14.20;4.97;;;;;;;18.52;100.00;100865.31;8371832;28;20407;-60
2023/06/28 06:30:41;;;;;;;16.05;4.72;;;;;;;18.55;100.00;100864.06;8369903;28;20065;-60
2023/06/28 06:34:41;;;;;;;14.95;4.97;;;;;;;18.49;100.00;100862.94;8370490;28;20095;-60
2023/06/28 06:38:42;;;;;;;21.20;4.72;;;;;;;18.63;100.00;100864.84;8371787;28;20052;-60
2023/06/28 06:42:42;;;;;;;25.50;5.40;;;;;;;18.81;100.00;100862.66;8368697;28;20041;-64
2023/06/28 06:46:44;;;;;;;25.13;5.38;;;;;;;19.00;100.00;100853.88;8371079;28;20037;-64
2023/06/28 06:50:44;;;;;;;26.92;5.13;;;;;;;19.20;96.89;100863.28;8369460;28;20071;-63
2023/06/28 06:54:45;;;;;;;21.08;4.82;;;;;;;19.24;98.49;100866.50;8371597;28;20036;-63
2023/06/28 06:58:45;;;;;;;28.33;5.82;;;;;;;19.42;96.77;100873.34;8363938;28;20051;-64
2023/06/28 07:02:45;;;;;;;18.15;4.20;;;;;;;19.22;95.36;100876.81;8370988;28;20469;-64
2023/06/28 07:06:46;;;;;;;12.55;3.20;;;;;;;19.35;89.53;100875.16;8367324;28;20048;-64
2023/06/28 07:10:47;;;;;;;9.52;3.10;;;;;;;19.37;92.31;100874.97;8368106;28;20063;-64
2023/06/28 07:14:49;;;;;;;12.10;3.75;;;;;;;19.57;92.19;100878.00;8368131;28;20400;-64
2023/06/28 07:18:50;;;;;;;12.77;3.30;;;;;;;19.74;92.61;100882.22;8376324;28;20051;-64
2023/06/28 07:22:51;;;;;;;12.30;3.70;;;;;;;20.00;92.11;100882.59;8371090;28;20033;-63
2023/06/28 07:26:51;;;;;;;7.30;2.53;;;;;;;19.69;88.44;100879.19;8376991;28;20033;-63
2023/06/28 07:30:55;;;;;;;9.77;2.90;;;;;;;19.72;88.10;100878.81;8373310;28;20142;-64
2023/06/28 07:34:55;;;;;;;6.63;2.20;;;;;;;19.52;83.12;100884.06;8376641;28;20090;-64
2023/06/28 07:38:55;;;;;;;13.07;2.90;;;;;;;19.63;84.28;100879.94;8374458;28;20045;-64
2023/06/28 07:42:58;;;;;;;10.35;2.38;;;;;;;19.81;83.22;100883.16;8376098;28;20044;-60
2023/06/28 07:46:58;;;;;;;9.13;2.17;;;;;;;20.00;80.79;100879.84;8374799;28;20040;-60
2023/06/28 07:50:59;;;;;;;10.82;2.22;;;;;;;19.90;82.27;100882.00;8375442;28;20059;-60
2023/06/28 07:55:02;;;;;;;10.73;2.97;;;;;;;19.90;82.25;100887.50;8376978;28;20036;-60
2023/06/28 07:59:05;;;;;;;12.13;3.17;;;;;;;19.94;85.94;100877.84;8371409;28;20147;-61
2023/06/28 08:03:05;;;;;;;11.85;3.45;;;;;;;20.17;85.88;100875.84;8373739;28;20049;-61
2023/06/28 08:07:06;;;;;;;9.57;3.30;;;;;;;20.18;85.41;100885.75;8371907;28;20071;-61
2023/06/28 08:11:06;;;;;;;11.55;2.92;;;;;;;20.22;88.94;100876.13;8374632;28;20064;-60
2023/06/28 08:15:07;;;;;;;6.88;2.53;;;;;;;20.12;81.04;100887.41;8374222;28;20068;-60
2023/06/28 08:19:10;;;;;;;9.45;2.88;;;;;;;20.03;83.33;100887.69;8373115;28;20052;-60
2023/06/28 08:23:10;;;;;;;9.43;2.50;;;;;;;20.17;82.23;100884.06;8372239;28;20099;-60
2023/06/28 08:27:10;;;;;;;8.13;2.40;;;;;;;20.15;80.14;100891.63;8377319;28;20614;-60
2023/06/28 08:31:13;;;;;;;7.90;2.65;;;;;;;20.16;77.62;100894.19;8370872;28;20044;-61
2023/06/28 08:35:13;;;;;;;5.07;2.25;;;;;;;20.30;80.62;100884.22;8372763;28;20132;-60
2023/06/28 08:39:14;;;;;;;9.18;2.47;;;;;;;20.24;76.95;100895.97;8373761;28;20052;-60
2023/06/28 08:43:16;;;;;;;6.68;1.95;;;;;;;20.13;77.55;100888.25;8371876;28;20479;-60
2023/06/28 08:47:17;;;;;;;7.25;2.20;;;;;;;20.22;77.56;100898.09;8373879;28;20120;-60
2023/06/28 08:51:17;;;;;;;6.28;1.85;;;;;;;20.47;78.57;100891.19;8372751;28;20480;-61
2023/06/28 08:55:19;;;;;;;6.85;2.22;;;;;;;20.72;76.93;100896.09;8375334;28;20430;-60
2023/06/28 08:59:20;;;;;;;9.15;2.75;;;;;;;20.78;77.53;100899.94;8372050;28;20097;-60
2023/06/28 09:03:21;;;;;;;5.18;2.13;;;;;;;21.06;78.26;100892.59;8371657;28;20040;-60
2023/06/28 09:07:22;;;;;;;6.47;1.95;;;;;;;21.29;75.57;100894.06;8373660;28;20560;-60
2023/06/28 09:11:25;;;;;;;6.57;1.80;;;;;;;21.20;75.65;100891.69;8372709;28;20419;-60
2023/06/28 09:15:25;;;;;;;5.82;1.90;;;;;;;21.20;74.98;100889.75;8373492;28;20079;-60
2023/06/28 09:19:25;;;;;;;8.18;1.92;;;;;;;21.01;75.36;100892.34;8371177;28;20041;-60
2023/06/28 09:23:28;;;;;;;9.95;2.90;;;;;;;21.16;75.94;100893.09;8371363;28;20040;-60
2023/06/28 09:27:29;;;;;;;5.43;1.90;;;;;;;21.28;74.31;100899.75;8374173;28;20044;-63
2023/06/28 09:31:50;;;;;;;5.03;1.70;;;;;;;21.16;73.33;100893.09;8373846;28;20540;-63
2023/06/28 09:35:55;;;;;;;4.07;1.60;;;;;;;21.40;71.43;100889.91;8370898;28;20037;-63
2023/06/28 09:39:56;;;;;;;6.45;2.50;;;;;;;21.45;69.00;100890.16;8369326;28;20064;-62
2023/06/28 09:43:56;;;;;;;4.35;2.08;;;;;;;21.53;69.59;100887.22;8370824;28;20041;-63
2023/06/28 09:48:00;;;;;;;5.00;1.67;;;;;;;21.33;69.49;100884.38;8372008;28;20044;-62
2023/06/28 09:52:03;;;;;;;9.30;1.83;;;;;;;21.50;69.15;100873.88;8370093;28;20203;-62
2023/06/28 09:56:04;;;;;;;7.77;2.03;;;;;;;21.43;70.42;100873.00;8374189;28;20120;-63
2023/06/28 10:00:05;;;;;;;5.72;2.10;;;;;;;21.61;70.38;100881.56;8366826;28;20053;-62
2023/06/28 10:04:27;;;;;;;5.78;2.20;;;;;;;21.82;69.81;100888.91;8331504;27;20381;-62
2023/06/28 10:08:28;;;;;;;13.90;2.43;;;;;;;22.18;68.28;100872.97;8333527;28;20029;-62
2023/06/28 10:12:31;;;;;;;6.18;2.47;;;;;;;22.29;68.09;100870.44;8331276;28;20033;-62
2023/06/28 10:16:33;;;;;;;5.97;2.50;;;;;;;22.61;68.84;100864.22;8334031;28;20550;-62
2023/06/28 10:20:37;;;;;;;7.55;1.98;;;;;;;22.54;68.34;100871.59;8331097;28;20048;-62
2023/06/28 10:24:38;;;;;;;8.02;2.97;;;;;;;22.85;66.97;100865.50;8330633;28;20072;-63
2023/06/28 10:28:40;;;;;;;8.73;2.72;;;;;;;23.08;66.62;100872.28;8331892;28;20041;-62
2023/06/28 10:32:43;;;;;;;9.38;2.90;;;;;;;23.14;69.28;100876.94;8332883;28;20248;-62
2023/06/28 10:36:43;;;;;;;9.65;3.15;;;;;;;23.51;66.79;100872.66;8329936;28;20045;-62
2023/06/28 10:40:46;;;;;;;6.28;2.88;;;;;;;23.43;69.48;100874.81;8332187;28;20106;-63
2023/06/28 10:44:51;;;;;;;11.98;3.67;;;;;;;23.73;67.24;100876.03;8328902;28;20545;-62
2023/06/28 10:48:53;;;;;;;12.30;2.72;;;;;;;24.39;66.91;100872.78;8330488;28;20037;-62
2023/06/28 10:52:56;;;;;;;8.52;2.80;;;;;;;24.09;64.54;100865.31;8325616;28;20037;-62
2023/06/28 10:57:08;;;;;;;8.25;2.78;;;;;;;23.63;67.70;100870.13;8330402;28;20048;-62
2023/06/28 11:01:11;;;;;;;9.50;2.38;;;;;;;23.46;68.64;100863.34;8327174;28;20485;-62
2023/06/28 11:05:11;;;;;;;9.27;3.30;;;;;;;23.74;68.17;100862.00;8330001;28;20045;-63
2023/06/28 11:09:14;;;;;;;9.00;3.22;;;;;;;23.96;65.86;100860.66;8330941;28;20048;-62
2023/06/28 11:13:32;;;;;;;12.13;3.33;;;;;;;24.79;66.60;100857.63;8320893;28;20069;-62
2023/06/28 11:17:33;;;;;;;11.93;3.00;;;;;;;24.73;66.57;100857.72;8307434;28;20043;-62
2023/06/28 11:21:33;;;;;;;9.85;2.58;;;;;;;25.08;63.72;100860.81;8306113;28;20044;-62
2023/06/28 11:25:34;;;;;;;7.75;2.45;;;;;;;24.69;62.50;100856.44;8306898;28;20045;-62
2023/06/28 11:29:51;;;;;;;7.90;2.53;;;;;;;24.40;66.32;100857.03;8306162;28;20033;-62
2023/06/28 11:33:54;;;;;;;14.32;3.38;;;;;;;24.15;64.77;100848.66;8304953;28;20488;-62
2023/06/28 11:37:56;;;;;;;9.07;2.88;;;;;;;24.13;65.44;100844.44;8309072;28;20044;-62
2023/06/28 11:41:56;;;;;;;10.05;2.75;;;;;;;24.06;63.50;100854.69;8306533;28;20030;-63
2023/06/28 11:45:57;;;;;;;8.18;2.53;;;;;;;24.11;64.77;100852.09;8328923;28;20041;-62
2023/06/28 11:49:57;;;;;;;8.80;2.83;;;;;;;24.32;64.29;100849.00;8308259;28;20041;-62
2023/06/28 11:53:58;;;;;;;8.48;2.70;;;;;;;24.13;64.24;100844.44;8303328;28;20099;-62
2023/06/28 11:57:59;;;;;;;7.35;2.40;;;;;;;24.52;66.34;100833.16;8306653;28;20049;-62
2023/06/28 12:02:05;;;;;;;10.10;2.28;;;;;;;26.23;61.42;100840.34;8308520;28;20127;-62
2023/06/28 12:06:09;;;;;;;10.35;2.60;;;;;;;26.65;61.40;100827.38;8305215;28;20488;-62
2023/06/28 12:10:11;;;;;;;8.70;2.20;;;;;;;26.91;59.01;100831.66;8308122;28;20044;-62
2023/06/28 12:14:11;;;;;;;11.05;2.33;;;;;;;27.18;58.55;100830.13;8305377;28;20113;-62
2023/06/28 12:18:11;;;;;;;6.93;2.70;;;;;;;27.40;57.37;100820.13;8305949;28;20041;-62
2023/06/28 12:22:12;;;;;;;10.02;3.17;;;;;;;26.22;61.04;100829.50;8304470;28;20273;-62
2023/06/28 12:26:13;;;;;;;8.65;2.38;;;;;;;26.05;59.80;100826.56;8300607;28;20049;-63
2023/06/28 12:30:14;;;;;;;11.60;2.72;;;;;;;26.18;60.41;100815.28;8303721;28;20057;-63
2023/06/28 12:34:27;;;;;;;7.00;2.90;;;;;;;26.50;61.02;100816.69;8306378;28;20029;-63
2023/06/28 12:38:27;;;;;;;5.93;2.50;;;;;;;26.74;61.34;100815.72;8306797;28;20091;-63
2023/06/28 12:42:28;;;;;;;8.05;3.08;;;;;;;26.81;60.52;100810.88;8305879;28;20041;-63
2023/06/28 12:46:29;;;;;;;5.95;2.45;;;;;;;26.00;59.90;100823.63;8303640;28;20046;-63
2023/06/28 12:50:29;;;;;;;11.32;2.55;;;;;;;25.85;61.15;100825.06;8306494;28;20033;-63
2023/06/28 12:54:30;;;;;;;8.45;2.92;;;;;;;25.74;64.44;100817.56;8303545;28;20048;-63
2023/06/28 12:58:30;;;;;;;11.07;3.00;;;;;;;26.13;63.39;100812.34;8302127;28;20073;-63
2023/06/28 13:02:31;;;;;;;6.40;3.03;;;;;;;26.25;60.36;100804.94;8304193;28;20411;-62
2023/06/28 13:06:32;;;;;;;14.90;3.23;;;;;;;26.13;61.99;100812.34;8305428;28;20399;-59
2023/06/28 13:10:32;;;;;;;7.82;3.00;;;;;;;26.62;61.15;100805.66;8303971;28;20276;-60
2023/06/28 13:14:33;;;;;;;6.18;2.63;;;;;;;26.60;58.98;100803.09;8304778;28;20121;-60
2023/06/28 13:18:33;;;;;;;8.65;2.65;;;;;;;26.89;58.57;100800.53;8304402;28;20116;-60
2023/06/28 13:22:33;;;;;;;9.33;2.50;;;;;;;27.05;58.67;100802.59;8303483;28;20038;-60
2023/06/28 13:26:34;;;;;;;9.07;2.78;;;;;;;27.15;58.77;100800.91;8302627;28;20289;-60
2023/06/28 13:30:34;;;;;;;5.00;2.10;;;;;;;27.18;57.81;100796.78;8305422;28;20033;-60
2023/06/28 13:34:34;;;;;;;8.67;2.50;;;;;;;27.30;57.95;100803.22;8304283;28;20274;-60
2023/06/28 13:38:35;;;;;;;7.68;2.50;;;;;;;27.14;58.67;100793.66;8304774;28;20284;-60
2023/06/28 13:42:35;;;;;;;9.60;2.90;;;;;;;26.95;57.64;100794.03;8301126;28;20033;-60
2023/06/28 13:46:36;;;;;;;8.40;2.60;;;;;;;26.87;59.85;100786.03;8304300;28;20052;-60
2023/06/28 13:50:36;;;;;;;10.23;2.45;;;;;;;26.88;58.13;100783.03;8302426;28;20047;-60
2023/06/28 13:54:37;;;;;;;8.98;2.88;;;;;;;26.48;60.63;100777.28;8309744;28;20044;-60
2023/06/28 13:58:37;;;;;;;7.28;2.75;;;;;;;26.55;61.32;100777.16;8315136;28;20053;-60
2023/06/28 14:02:38;;;;;;;6.63;2.15;;;;;;;26.78;61.26;100772.50;8301870;28;20104;-60
2023/06/28 14:06:38;;;;;;;5.00;2.00;;;;;;;26.95;57.87;100771.81;8304793;28;20045;-60
2023/06/28 14:10:39;;;;;;;12.45;2.75;;;;;;;27.27;55.42;100765.69;8301894;28;20077;-60
2023/06/28 14:14:40;;;;;;;6.25;1.90;;;;;;;27.58;54.66;100765.25;8304453;28;20488;-60
2023/06/28 14:18:41;;;;;;;10.13;2.22;;;;;;;26.88;54.86;100765.53;8301450;28;20061;-59
2023/06/28 14:22:47;;;;;;;7.70;2.33;;;;;;;27.52;55.33;100757.91;8301500;28;20137;-60
2023/06/28 14:26:50;;;;;;;10.75;2.40;;;;;;;27.53;56.93;100756.81;8301422;28;20098;-60
2023/06/28 14:30:50;;;;;;;5.63;2.53;;;;;;;27.06;55.71;100751.53;8301692;28;20037;-59
2023/06/28 14:34:51;;;;;;;11.60;2.72;;;;;;;26.84;56.74;100757.69;8302782;28;20049;-59
2023/06/28 14:38:51;;;;;;;7.53;2.50;;;;;;;26.67;56.25;100753.94;8303864;28;20120;-60
2023/06/28 14:42:52;;;;;;;7.55;2.58;;;;;;;27.04;57.99;100750.94;8300563;28;20323;-59
2023/06/28 14:46:52;;;;;;;10.60;3.13;;;;;;;27.13;56.02;100752.25;8303921;28;20054;-59
2023/06/28 14:50:52;;;;;;;7.57;2.67;;;;;;;27.34;56.07;100744.16;8305961;28;20405;-59
2023/06/28 14:54:53;;;;;;;8.77;2.73;;;;;;;27.12;56.00;100742.22;8308651;28;20049;-59
2023/06/28 14:58:53;;;;;;;6.68;2.58;;;;;;;27.32;56.94;100748.28;8308131;28;20335;-59
2023/06/28 15:02:54;;;;;;;7.80;2.87;;;;;;;27.47;58.88;100743.06;8310422;28;20038;-59
2023/06/28 15:06:54;;;;;;;8.20;3.08;;;;;;;27.51;54.96;100739.56;8306906;28;20273;-64
2023/06/28 15:10:54;;;;;;;10.15;3.03;;;;;;;27.25;56.14;100737.31;8308550;28;20037;-63
2023/06/28 15:14:55;;;;;;;13.25;3.50;;;;;;;27.34;56.38;100740.53;8309708;28;20034;-64
2023/06/28 15:18:55;;;;;;;10.02;3.45;;;;;;;27.56;57.42;100733.22;8305733;28;20034;-63
2023/06/28 15:23:05;;;;;;;9.35;3.05;;;;;;;27.68;56.41;100728.50;8305679;28;20660;-63
2023/06/28 15:27:05;;;;;;;8.43;2.58;;;;;;;27.59;57.12;100719.72;8308455;28;20057;-63
2023/06/28 15:31:06;;;;;;;9.20;3.42;;;;;;;27.60;55.78;100715.00;8306865;28;20084;-63
2023/06/28 15:35:06;;;;;;;9.02;3.10;;;;;;;27.60;55.89;100707.50;8308365;28;20038;-63
2023/06/28 15:39:07;;;;;;;11.00;3.17;;;;;;;27.65;56.59;100712.31;8304594;28;20034;-64
2023/06/28 15:43:07;;;;;;;7.68;2.65;;;;;;;27.69;56.05;100697.66;8301592;28;20060;-64
2023/06/28 15:47:08;;;;;;;9.48;2.78;;;;;;;27.47;56.22;100699.44;8335604;28;20034;-64
2023/06/28 15:51:08;;;;;;;9.33;3.70;;;;;;;27.51;56.70;100686.78;8305201;28;20026;-64
2023/06/28 15:55:09;;;;;;;9.80;3.80;;;;;;;27.50;55.60;100698.13;8305002;28;20280;-63
2023/06/28 15:59:09;;;;;;;7.93;3.10;;;;;;;27.50;57.23;100698.13;8310020;28;20037;-63
2023/06/28 16:03:10;;;;;;;11.90;3.00;;;;;;;27.52;57.33;100693.16;8308118;28;20104;-64
2023/06/28 16:07:10;;;;;;;10.18;4.15;;;;;;;27.24;56.60;100701.41;8306163;28;20034;-63
2023/06/28 16:11:10;;;;;;;6.07;3.17;;;;;;;27.25;56.78;100701.19;8307465;28;20037;-63
2023/06/28 16:15:11;;;;;;;11.52;3.38;;;;;;;27.57;57.66;100690.50;8305319;28;20080;-64
2023/06/28 16:19:11;;;;;;;12.27;3.33;;;;;;;27.16;57.46;100697.09;8306675;28;20040;-64
2023/06/28 16:23:12;;;;;;;7.43;3.08;;;;;;;27.18;58.68;100694.91;8304425;28;20034;-64
2023/06/28 16:27:19;;;;;;;7.18;3.08;;;;;;;27.03;57.83;100682.63;8306057;28;20046;-64
2023/06/28 16:31:19;;;;;;;10.18;3.30;;;;;;;26.96;58.00;100679.13;8307169;28;20410;-64
2023/06/28 16:35:20;;;;;;;14.10;3.63;;;;;;;26.93;57.95;100679.63;8304959;28;20076;-64
2023/06/28 16:39:21;;;;;;;7.80;3.27;;;;;;;26.78;58.21;100672.63;8305676;28;20087;-64
2023/06/28 16:43:21;;;;;;;7.13;3.20;;;;;;;26.75;58.62;100673.09;8304627;28;20627;-64
2023/06/28 16:47:22;;;;;;;7.82;3.50;;;;;;;26.32;59.66;100674.53;8305798;28;20132;-64
2023/06/28 16:51:22;;;;;;;10.70;3.40;;;;;;;26.40;58.78;100669.47;8303604;28;20045;-64
2023/06/28 16:55:23;;;;;;;9.88;3.42;;;;;;;26.59;58.10;100673.81;8307189;28;20041;-64
2023/06/28 16:59:23;;;;;;;11.13;3.10;;;;;;;26.36;59.37;100672.94;8303196;28;20037;-64
2023/06/28 17:03:24;;;;;;;11.68;3.45;;;;;;;26.46;60.36;100674.03;8304732;28;20041;-64
2023/06/28 17:07:24;;;;;;;9.90;3.20;;;;;;;26.43;61.19;100676.44;8288075;28;20045;-64
2023/06/28 17:11:26;;;;;;;12.85;4.15;;;;;;;26.23;59.79;100674.00;8302375;28;20041;-64
2023/06/28 17:15:26;;;;;;;8.07;3.67;;;;;;;26.25;60.02;100671.00;8305832;28;20048;-64
2023/06/28 17:19:27;;;;;;;7.90;3.42;;;;;;;26.19;60.48;100670.03;8303679;28;20045;-64
2023/06/28 17:23:27;;;;;;;9.02;3.28;;;;;;;26.04;59.86;100677.94;8303298;28;20456;-64
2023/06/28 17:27:33;;;;;;;12.00;3.60;;;;;;;26.21;59.45;100675.34;8302921;28;20041;-64
2023/06/28 17:31:33;;;;;;;6.57;3.58;;;;;;;25.99;60.23;100682.53;8303072;28;20048;-63
2023/06/28 17:35:33;;;;;;;10.95;3.95;;;;;;;26.05;60.04;100685.19;8301401;28;20041;-64
2023/06/28 17:39:34;;;;;;;9.43;3.17;;;;;;;25.82;62.58;100681.44;8320913;28;20064;-64
2023/06/28 17:43:34;;;;;;;6.53;3.05;;;;;;;25.95;61.86;100687.66;8303408;28;20487;-64
2023/06/28 17:47:35;;;;;;;6.82;3.15;;;;;;;25.91;61.63;100683.66;8301692;28;20049;-64
2023/06/28 17:51:35;;;;;;;7.97;3.03;;;;;;;26.09;60.83;100678.09;8301891;28;20046;-64
2023/06/28 17:55:35;;;;;;;7.13;3.33;;;;;;;26.08;60.89;100681.09;8300288;28;20099;-63
2023/06/28 17:59:36;;;;;;;7.15;3.13;;;;;;;26.11;60.38;100681.47;8304855;28;20519;-64
2023/06/28 18:03:36;;;;;;;6.80;3.72;;;;;;;26.09;60.48;100686.41;8304204;28;20105;-64
2023/06/28 18:07:37;;;;;;;8.20;3.47;;;;;;;25.94;62.00;100674.88;8302860;28;20060;-64
2023/06/28 18:11:37;;;;;;;6.72;3.42;;;;;;;25.97;62.04;100688.25;8304777;28;20460;-64
2023/06/28 18:15:38;;;;;;;8.68;3.75;;;;;;;25.87;62.85;100678.84;8300458;28;20041;-64
2023/06/28 18:19:40;;;;;;;7.30;3.22;;;;;;;25.85;61.41;100680.97;8303462;28;20038;-64
2023/06/28 18:23:40;;;;;;;10.02;3.03;;;;;;;25.80;61.56;100676.16;8300735;28;20041;-64
2023/06/28 18:27:41;;;;;;;7.97;3.50;;;;;;;25.62;62.38;100681.75;8308682;28;20057;-64
2023/06/28 18:31:42;;;;;;;8.02;2.92;;;;;;;25.66;62.48;100680.22;8308847;28;20366;-64